Time;durP1;ratioP1;P1;durP2;ratioP2;P2;SDS_P1;SDS_P2;PMS_P1;PMS_P2;Temp;Humidity;BMP_temperature;BMP_pressure;BME280_temperature;BME280_humidity;BME280_pressure;Samples;Min_cycle;Max_cycle;Signal;HPM_P1;HPM_P2
2023/04/16 00:01:14;;;;;;;5.47;0.10;;;8.30;99.90;;;;;;5074516;28;20028;-74
2023/04/16 00:03:40;;;;;;;2.05;0.17;;;8.30;99.90;;;;;;5074452;28;20070;-74
2023/04/16 00:06:06;;;;;;;4.95;0.47;;;8.30;99.90;;;;;;5056668;28;20044;-74
2023/04/16 00:08:31;;;;;;;4.30;0.17;;;8.30;99.90;;;;;;5074735;28;20029;-75
2023/04/16 00:10:59;;;;;;;6.15;0.10;;;8.30;99.90;;;;;;5074576;28;20031;-74
2023/04/16 00:13:26;;;;;;;1.23;0.00;;;;;;;;;;5073966;28;20064;-75
2023/04/16 00:15:54;;;;;;;4.00;0.15;;;8.30;99.90;;;;;;5055927;28;20031;-75
2023/04/16 00:18:21;;;;;;;3.35;0.17;;;8.30;99.90;;;;;;5055806;28;20035;-74
2023/04/16 00:20:49;;;;;;;2.75;0.43;;;8.30;99.90;;;;;;5073804;28;20039;-75
2023/04/16 00:23:15;;;;;;;2.72;0.52;;;8.20;99.90;;;;;;5055771;28;20020;-75
2023/04/16 00:25:41;;;;;;;4.07;0.30;;;8.20;99.90;;;;;;5073650;28;20023;-74
2023/04/16 00:28:08;;;;;;;3.15;0.00;;;8.20;99.90;;;;;;5055593;28;20481;-74
2023/04/16 00:30:36;;;;;;;1.13;0.00;;;8.20;99.90;;;;;;5073641;28;20024;-75
2023/04/16 00:33:03;;;;;;;4.25;0.25;;;8.30;99.90;;;;;;5073559;28;20025;-75
2023/04/16 00:35:32;;;;;;;3.80;0.10;;;8.30;99.90;;;;;;5073286;28;20027;-76
2023/04/16 00:37:57;;;;;;;2.60;0.10;;;8.30;99.90;;;;;;5055360;28;20027;-74
2023/04/16 00:40:27;;;;;;;3.13;0.20;;;8.30;99.90;;;;;;5055359;28;20028;-74
2023/04/16 00:42:53;;;;;;;4.45;0.20;;;8.30;99.90;;;;;;5073345;28;20049;-75
2023/04/16 00:45:18;;;;;;;0.55;0.00;;;8.30;99.90;;;;;;5055374;28;20124;-75
2023/04/16 00:47:44;;;;;;;5.25;0.13;;;8.30;99.90;;;;;;5073847;28;20032;-74
2023/04/16 00:50:11;;;;;;;1.60;0.10;;;8.30;99.90;;;;;;5073804;28;20025;-74
2023/04/16 00:52:39;;;;;;;2.47;0.28;;;8.30;99.90;;;;;;5055330;28;20399;-74
2023/04/16 00:55:06;;;;;;;2.50;0.40;;;8.30;99.90;;;;;;5055731;28;20032;-74
2023/04/16 00:57:34;;;;;;;3.28;0.55;;;8.20;99.90;;;;;;5073204;28;20074;-74
2023/04/16 01:00:01;;;;;;;1.50;0.23;;;8.30;99.90;;;;;;5055263;28;20068;-74
2023/04/16 01:02:27;;;;;;;10.10;0.30;;;8.30;99.90;;;;;;5055247;28;20025;-74
2023/04/16 01:04:56;;;;;;;3.22;0.20;;;8.20;99.90;;;;;;5055323;28;20099;-74
2023/04/16 01:07:21;;;;;;;3.22;0.40;;;8.30;99.90;;;;;;5073174;28;20032;-74
2023/04/16 01:09:48;;;;;;;3.35;0.20;;;8.30;99.90;;;;;;5073119;28;20032;-73
2023/04/16 01:12:14;;;;;;;4.28;0.77;;;8.20;99.90;;;;;;5054967;28;20031;-73
2023/04/16 01:14:43;;;;;;;5.97;0.30;;;8.30;99.90;;;;;;5055058;28;20028;-74
2023/04/16 01:17:08;;;;;;;8.90;0.50;;;8.30;99.90;;;;;;5055189;28;20025;-74
2023/04/16 01:19:37;;;;;;;2.55;0.30;;;8.20;99.90;;;;;;5073072;28;20178;-74
2023/04/16 01:22:09;;;;;;;4.20;1.38;;;8.20;99.90;;;;;;5073308;28;20020;-74
2023/04/16 01:24:35;;;;;;;7.30;0.65;;;8.20;99.90;;;;;;5073042;28;20067;-74
2023/04/16 01:27:07;;;;;;;0.93;0.40;;;8.20;99.90;;;;;;5072966;28;20515;-73
2023/04/16 01:29:33;;;;;;;4.75;1.15;;;;;;;;;;5073197;28;20028;-73
2023/04/16 01:31:59;;;;;;;2.90;0.50;;;8.20;99.90;;;;;;5055256;28;20117;-74
2023/04/16 01:34:29;;;;;;;3.45;0.60;;;8.30;99.90;;;;;;5072769;28;20064;-73
2023/04/16 01:36:54;;;;;;;6.18;1.02;;;8.30;99.90;;;;;;5073034;28;20037;-74
2023/04/16 01:39:21;;;;;;;3.95;0.60;;;;;;;;;;5072815;28;20129;-73
2023/04/16 01:41:46;;;;;;;1.13;0.30;;;8.30;99.90;;;;;;5073383;28;20464;-74
2023/04/16 01:44:13;;;;;;;1.42;0.50;;;8.30;99.90;;;;;;5055336;28;20105;-74
2023/04/16 01:46:38;;;;;;;3.33;0.65;;;8.30;99.90;;;;;;5072786;28;20028;-73
2023/04/16 01:49:06;;;;;;;2.45;0.30;;;;;;;;;;5054962;28;20024;-74
2023/04/16 01:51:32;;;;;;;5.78;1.13;;;8.40;99.90;;;;;;5072718;28;20391;-73
2023/04/16 01:53:57;;;;;;;7.32;0.77;;;8.40;99.90;;;;;;5072623;28;20024;-74
2023/04/16 01:56:23;;;;;;;4.88;1.55;;;8.30;99.90;;;;;;5075751;28;20028;-74
2023/04/16 01:58:49;;;;;;;6.45;1.58;;;8.30;99.90;;;;;;5058552;28;20434;-74
2023/04/16 02:01:15;;;;;;;6.47;1.00;;;;;;;;;;5076381;28;20020;-74
2023/04/16 02:03:41;;;;;;;3.92;0.70;;;8.30;99.90;;;;;;5076431;28;20111;-74
2023/04/16 02:06:10;;;;;;;3.42;0.77;;;8.40;99.90;;;;;;5058483;28;20009;-74
2023/04/16 02:08:36;;;;;;;5.03;0.82;;;8.50;99.90;;;;;;5058283;28;20056;-74
2023/04/16 02:11:02;;;;;;;4.22;0.70;;;8.40;99.90;;;;;;5076205;28;20028;-74
2023/04/16 02:13:28;;;;;;;4.53;0.47;;;8.90;99.90;;;;;;5058218;28;20025;-74
2023/04/16 02:15:54;;;;;;;2.78;0.50;;;8.40;99.90;;;;;;5076190;28;20028;-74
2023/04/16 02:18:19;;;;;;;10.25;1.73;;;8.40;99.90;;;;;;5076150;28;20017;-74
2023/04/16 02:20:46;;;;;;;5.60;1.65;;;8.40;99.90;;;;;;5058209;28;20025;-74
2023/04/16 02:23:15;;;;;;;2.92;0.40;;;8.40;99.90;;;;;;5076048;28;20031;-74
2023/04/16 02:25:44;;;;;;;5.72;0.50;;;8.90;99.90;;;;;;5075920;28;20075;-74
2023/04/16 02:28:12;;;;;;;3.03;0.43;;;8.40;99.90;;;;;;5075914;28;20047;-73
2023/04/16 02:30:39;;;;;;;2.00;0.65;;;8.40;99.90;;;;;;5076116;28;20492;-73
2023/04/16 02:33:06;;;;;;;5.10;0.60;;;8.40;99.90;;;;;;5076555;28;20027;-73
2023/04/16 02:35:34;;;;;;;2.90;0.47;;;8.40;99.90;;;;;;5058056;28;20479;-74
2023/04/16 02:38:00;;;;;;;6.75;1.48;;;8.50;99.90;;;;;;5057856;28;20127;-73
2023/04/16 02:40:29;;;;;;;1.52;0.32;;;8.50;99.90;;;;;;5075745;28;20066;-73
2023/04/16 02:43:02;;;;;;;1.50;0.15;;;8.50;99.90;;;;;;5075656;28;20036;-73
2023/04/16 02:45:30;;;;;;;3.78;0.32;;;8.40;99.90;;;;;;5075676;28;20104;-73
2023/04/16 02:47:55;;;;;;;3.63;0.30;;;8.40;99.90;;;;;;5057541;28;20024;-73
2023/04/16 02:50:21;;;;;;;9.00;1.23;;;8.40;99.90;;;;;;5075611;28;20170;-73
2023/04/16 02:52:47;;;;;;;5.10;0.82;;;8.40;99.90;;;;;;5075484;28;20025;-74
2023/04/16 02:55:13;;;;;;;8.07;0.40;;;8.40;99.90;;;;;;5057436;28;20029;-74
2023/04/16 02:57:39;;;;;;;2.47;0.80;;;8.40;99.90;;;;;;5057813;28;20383;-74
2023/04/16 03:00:08;;;;;;;7.18;1.05;;;8.40;99.90;;;;;;5075433;28;20036;-74
2023/04/16 03:02:33;;;;;;;5.65;0.95;;;8.40;99.90;;;;;;5075316;28;20044;-74
2023/04/16 03:05:02;;;;;;;4.40;0.82;;;8.40;99.90;;;;;;5075465;28;20557;-73
2023/04/16 03:07:28;;;;;;;3.47;0.93;;;8.40;99.90;;;;;;5056069;28;20028;-73
2023/04/16 03:09:56;;;;;;;3.15;0.80;;;8.40;99.90;;;;;;5075195;28;20476;-73
2023/04/16 03:12:21;;;;;;;6.30;0.80;;;8.40;99.90;;;;;;5057151;28;20495;-73
2023/04/16 03:14:51;;;;;;;6.43;1.00;;;8.40;99.90;;;;;;5074997;28;20114;-73
2023/04/16 03:17:16;;;;;;;1.98;0.75;;;8.40;99.90;;;;;;5057116;28;20079;-73
2023/04/16 03:19:46;;;;;;;5.78;1.17;;;8.40;99.90;;;;;;5057038;28;20036;-74
2023/04/16 03:22:12;;;;;;;9.15;1.63;;;;;;;;;;5074887;28;20078;-74
2023/04/16 03:24:37;;;;;;;6.72;1.23;;;8.40;99.90;;;;;;5074892;28;20036;-74
2023/04/16 03:27:06;;;;;;;7.10;1.77;;;8.40;99.90;;;;;;5056752;28;20051;-74
2023/04/16 03:29:32;;;;;;;4.80;1.23;;;8.40;99.90;;;;;;5074833;28;20078;-74
2023/04/16 03:31:57;;;;;;;4.82;1.60;;;8.40;99.90;;;;;;5074982;28;20422;-74
2023/04/16 03:34:23;;;;;;;8.52;1.45;;;8.30;99.90;;;;;;5056782;28;20567;-74
2023/04/16 03:36:48;;;;;;;4.53;1.83;;;8.30;99.90;;;;;;5074488;28;20085;-74
2023/04/16 03:39:14;;;;;;;8.75;1.48;;;8.30;99.90;;;;;;5056481;28;20029;-74
2023/04/16 03:41:41;;;;;;;8.40;2.00;;;8.30;99.90;;;;;;5056666;28;20052;-74
2023/04/16 03:44:07;;;;;;;7.40;2.13;;;8.30;99.90;;;;;;5074568;28;20081;-74
2023/04/16 03:46:32;;;;;;;6.18;2.20;;;8.30;99.90;;;;;;5074412;28;20111;-74
2023/04/16 03:48:58;;;;;;;7.07;2.00;;;8.30;99.90;;;;;;5074484;28;20100;-73
2023/04/16 03:51:25;;;;;;;8.50;1.85;;;8.30;99.90;;;;;;5074248;28;20032;-75
2023/04/16 03:53:50;;;;;;;18.83;2.78;;;8.30;99.90;;;;;;5074702;28;20024;-73
2023/04/16 03:56:16;;;;;;;13.68;2.40;;;9.00;99.90;;;;;;5074348;28;20020;-74
2023/04/16 03:58:42;;;;;;;12.75;2.58;;;8.30;99.90;;;;;;5074366;28;20100;-74
2023/04/16 04:01:07;;;;;;;9.57;2.45;;;7.80;99.90;;;;;;5056869;28;20024;-74
2023/04/16 04:03:33;;;;;;;14.32;3.50;;;8.20;99.90;;;;;;5057131;28;20009;-73
2023/04/16 04:05:58;;;;;;;10.45;3.13;;;8.20;99.90;;;;;;5074619;28;20051;-74
2023/04/16 04:08:25;;;;;;;8.70;2.72;;;8.20;99.90;;;;;;5074678;28;20464;-74
2023/04/16 04:10:50;;;;;;;16.63;3.58;;;8.20;99.90;;;;;;5074515;28;20023;-74
2023/04/16 04:13:19;;;;;;;10.85;2.28;;;8.20;99.90;;;;;;5056873;28;20025;-74
2023/04/16 04:15:44;;;;;;;;;;;8.30;99.90;;;;;;5057006;28;20032;-74
2023/04/16 04:18:10;;;;;;;9.02;2.47;;;8.30;99.90;;;;;;5074034;28;19904;-75
2023/04/16 04:20:39;;;;;;;16.67;3.30;;;8.30;99.90;;;;;;5074638;28;20029;-74
2023/04/16 04:23:05;;;;;;;11.45;4.03;;;8.30;99.90;;;;;;5074792;28;20021;-76
2023/04/16 04:25:31;;;;;;;11.55;3.13;;;8.30;99.90;;;;;;5057022;28;20032;-76
2023/04/16 04:27:56;;;;;;;10.40;2.97;;;8.30;99.90;;;;;;5075938;28;20028;-76
2023/04/16 04:30:22;;;;;;;14.43;3.95;;;8.30;99.90;;;;;;5057365;28;20026;-76
2023/04/16 04:32:47;;;;;;;10.43;2.72;;;8.30;99.90;;;;;;5057425;28;20111;-76
2023/04/16 04:35:13;;;;;;;8.48;3.50;;;8.30;99.90;;;;;;5074815;28;20028;-76
2023/04/16 04:37:38;;;;;;;10.35;3.13;;;8.30;99.90;;;;;;5074898;28;20403;-76
2023/04/16 04:40:04;;;;;;;14.70;3.60;;;8.30;99.90;;;;;;5057214;28;20059;-76
2023/04/16 04:42:30;;;;;;;11.13;3.70;;;8.30;99.90;;;;;;5075152;28;20052;-76
2023/04/16 04:44:56;;;;;;;12.43;4.82;;;8.30;99.90;;;;;;5056773;28;20506;-76
2023/04/16 04:47:21;;;;;;;11.63;4.00;;;8.20;99.90;;;;;;5074302;28;20096;-76
2023/04/16 04:49:47;;;;;;;15.02;4.70;;;8.30;99.90;;;;;;5056452;28;20043;-75
2023/04/16 04:52:13;;;;;;;10.15;4.07;;;8.60;99.90;;;;;;5073351;28;20024;-75
2023/04/16 04:54:40;;;;;;;17.30;5.75;;;8.30;99.90;;;;;;5073326;28;20032;-75
2023/04/16 04:57:06;;;;;;;22.70;4.93;;;8.30;99.90;;;;;;5073397;28;20017;-75
2023/04/16 04:59:32;;;;;;;30.98;6.85;;;8.30;99.90;;;;;;5055207;28;20395;-76
2023/04/16 05:01:58;;;;;;;12.13;4.80;;;8.30;99.90;;;;;;5055212;28;20027;-76
2023/04/16 05:04:23;;;;;;;20.42;5.88;;;8.30;99.90;;;;;;5055261;28;20020;-75
2023/04/16 05:06:49;;;;;;;18.83;6.25;;;8.30;99.90;;;;;;5055193;28;20110;-75
2023/04/16 05:09:16;;;;;;;32.83;7.68;;;8.30;99.90;;;;;;5055254;28;20074;-76
2023/04/16 05:11:41;;;;;;;24.85;7.97;;;8.30;99.90;;;;;;5073186;28;20017;-76
2023/04/16 05:14:07;;;;;;;38.72;6.57;;;8.30;99.90;;;;;;5073111;28;20039;-76
2023/04/16 05:16:36;;;;;;;24.90;6.90;;;8.30;99.90;;;;;;5055165;28;20039;-75
2023/04/16 05:19:02;;;;;;;30.05;8.48;;;8.30;99.90;;;;;;5055191;28;20472;-76
2023/04/16 05:21:28;;;;;;;37.08;9.32;;;8.30;99.90;;;;;;5055103;28;20075;-76
2023/04/16 05:23:53;;;;;;;28.95;8.23;;;8.30;99.90;;;;;;5073058;28;20096;-76
2023/04/16 05:26:19;;;;;;;26.20;7.78;;;8.30;99.90;;;;;;5072972;28;20021;-75
2023/04/16 05:28:45;;;;;;;25.02;6.72;;;8.30;99.90;;;;;;5073029;28;20037;-76
2023/04/16 05:31:10;;;;;;;24.38;7.22;;;8.30;99.90;;;;;;5076318;28;20025;-76
2023/04/16 05:33:36;;;;;;;27.83;8.23;;;8.30;99.90;;;;;;5076968;28;20032;-75
2023/04/16 05:36:02;;;;;;;25.70;6.90;;;8.30;99.90;;;;;;5059003;28;20024;-76
2023/04/16 05:38:27;;;;;;;20.15;7.00;;;8.30;99.90;;;;;;5059773;28;20020;-76
2023/04/16 05:40:54;;;;;;;26.17;6.53;;;8.30;99.90;;;;;;5059011;28;20024;-76
2023/04/16 05:43:20;;;;;;;25.38;7.07;;;8.30;99.90;;;;;;5076852;28;20027;-76
2023/04/16 05:45:45;;;;;;;22.60;6.18;;;8.30;99.90;;;;;;5076862;28;20471;-76
2023/04/16 05:48:12;;;;;;;17.25;6.15;;;8.30;99.90;;;;;;5076793;28;20435;-76
2023/04/16 05:50:38;;;;;;;23.00;6.97;;;8.30;99.90;;;;;;5076799;28;20021;-75
2023/04/16 05:53:05;;;;;;;24.60;6.55;;;8.30;99.90;;;;;;5058775;28;20456;-75
2023/04/16 05:55:31;;;;;;;24.88;6.57;;;8.40;99.90;;;;;;5077109;28;20063;-76
2023/04/16 05:57:57;;;;;;;20.98;6.85;;;8.40;99.90;;;;;;5076636;28;20025;-76
2023/04/16 06:00:23;;;;;;;27.13;7.20;;;8.40;99.90;;;;;;5058560;28;20023;-76
2023/04/16 06:02:49;;;;;;;19.83;5.85;;;8.40;99.90;;;;;;5076450;28;20468;-75
2023/04/16 06:05:15;;;;;;;25.48;7.28;;;8.40;99.90;;;;;;5058660;28;20043;-76
2023/04/16 06:07:40;;;;;;;26.23;6.20;;;8.40;99.90;;;;;;5076352;28;20029;-75
2023/04/16 06:10:06;;;;;;;31.35;6.90;;;8.40;99.90;;;;;;5076409;28;20024;-76
2023/04/16 06:12:32;;;;;;;23.45;7.05;;;8.40;99.90;;;;;;5076240;28;20035;-76
2023/04/16 06:14:57;;;;;;;21.48;6.38;;;8.40;99.90;;;;;;5058393;28;20031;-76
2023/04/16 06:17:23;;;;;;;21.27;6.93;;;8.50;99.90;;;;;;5076203;28;20009;-76
2023/04/16 06:19:48;;;;;;;18.50;6.50;;;8.40;99.90;;;;;;5058246;28;20013;-76
2023/04/16 06:22:14;;;;;;;19.00;6.15;;;8.50;99.90;;;;;;5076116;28;20017;-75
2023/04/16 06:24:40;;;;;;;17.17;6.00;;;8.50;99.90;;;;;;5076543;28;20051;-76
2023/04/16 06:27:05;;;;;;;16.75;5.72;;;8.50;99.90;;;;;;5057953;28;20119;-75
2023/04/16 06:29:34;;;;;;;16.95;5.50;;;8.50;99.90;;;;;;5075959;28;20476;-76
2023/04/16 06:32:00;;;;;;;22.42;7.50;;;8.60;99.90;;;;;;5057982;28;20024;-76
2023/04/16 06:34:26;;;;;;;18.88;5.95;;;8.60;99.90;;;;;;5057828;28;20475;-75
2023/04/16 06:36:52;;;;;;;15.25;4.90;;;8.60;99.90;;;;;;5075699;28;20052;-76
2023/04/16 06:39:20;;;;;;;13.75;4.55;;;8.60;99.90;;;;;;5057700;28;20068;-75
2023/04/16 06:41:46;;;;;;;12.80;5.40;;;8.60;99.90;;;;;;5075565;28;20094;-76
2023/04/16 06:44:12;;;;;;;12.57;4.78;;;8.60;99.90;;;;;;5075658;28;20082;-76
2023/04/16 06:46:37;;;;;;;16.38;5.68;;;8.60;99.90;;;;;;5075978;28;20037;-77
2023/04/16 06:49:03;;;;;;;15.82;5.22;;;8.60;99.90;;;;;;5076120;28;20020;-76
2023/04/16 06:51:28;;;;;;;13.77;5.05;;;8.60;99.90;;;;;;5057610;28;20032;-76
2023/04/16 06:53:54;;;;;;;20.20;5.63;;;8.70;99.90;;;;;;5075473;28;20514;-76
2023/04/16 06:56:20;;;;;;;14.50;6.18;;;8.70;99.90;;;;;;5057467;28;20032;-75
2023/04/16 06:58:45;;;;;;;15.35;5.25;;;8.60;99.90;;;;;;5057675;28;20530;-76
2023/04/16 07:01:11;;;;;;;17.60;5.95;;;8.70;99.90;;;;;;5057432;28;20021;-77
2023/04/16 07:03:37;;;;;;;18.33;5.85;;;8.70;99.90;;;;;;5057445;28;20490;-77
2023/04/16 07:06:02;;;;;;;20.23;4.72;;;8.70;99.90;;;;;;5075351;28;20032;-77
2023/04/16 07:08:28;;;;;;;14.70;5.03;;;9.30;99.90;;;;;;5075221;28;20502;-77
2023/04/16 07:10:53;;;;;;;15.35;5.63;;;8.70;99.90;;;;;;5075233;28;20017;-77
2023/04/16 07:13:20;;;;;;;12.25;4.65;;;8.70;99.90;;;;;;5075154;28;20020;-77
2023/04/16 07:15:46;;;;;;;17.10;5.05;;;8.70;99.90;;;;;;5057093;28;20562;-77
2023/04/16 07:18:11;;;;;;;14.32;5.03;;;8.70;99.90;;;;;;5057050;28;20021;-77
2023/04/16 07:20:37;;;;;;;14.40;5.38;;;8.80;99.90;;;;;;5075056;28;20025;-76
2023/04/16 07:23:03;;;;;;;20.13;5.18;;;10.10;99.90;;;;;;5075098;28;20028;-77
2023/04/16 07:25:28;;;;;;;10.52;5.10;;;8.80;99.90;;;;;;5075286;28;20017;-77
2023/04/16 07:27:54;;;;;;;12.43;4.93;;;8.90;99.90;;;;;;5056948;28;20028;-77
2023/04/16 07:30:20;;;;;;;13.38;6.47;;;8.80;99.90;;;;;;5074864;28;20387;-77
2023/04/16 07:32:45;;;;;;;14.57;4.20;;;8.90;99.90;;;;;;5075437;28;20054;-76
2023/04/16 07:35:11;;;;;;;16.95;5.30;;;8.80;99.90;;;;;;5074691;28;20060;-77
2023/04/16 07:37:36;;;;;;;12.90;5.13;;;8.90;99.90;;;;;;5056674;28;20032;-77
2023/04/16 07:40:03;;;;;;;17.90;5.05;;;8.90;99.90;;;;;;5074810;28;20029;-77
2023/04/16 07:42:28;;;;;;;9.02;4.45;;;8.90;99.90;;;;;;5074623;28;20019;-77
2023/04/16 07:44:54;;;;;;;19.17;5.45;;;8.90;99.90;;;;;;5074615;28;20467;-76
2023/04/16 07:47:21;;;;;;;19.92;6.30;;;8.90;99.90;;;;;;5074487;28;20029;-76
2023/04/16 07:49:48;;;;;;;12.18;4.78;;;9.50;99.90;;;;;;5074543;28;20021;-76
2023/04/16 07:52:13;;;;;;;12.73;4.65;;;8.90;99.90;;;;;;5056117;28;20086;-76
2023/04/16 07:54:39;;;;;;;10.43;4.40;;;8.90;99.90;;;;;;5074041;28;20476;-77
2023/04/16 07:57:04;;;;;;;13.25;4.85;;;9.00;99.90;;;;;;5056472;28;20115;-77
2023/04/16 07:59:30;;;;;;;8.85;4.07;;;9.00;99.90;;;;;;5056341;28;20024;-76
2023/04/16 08:01:56;;;;;;;13.45;4.22;;;9.00;99.90;;;;;;5074308;28;20030;-76
2023/04/16 08:04:23;;;;;;;11.07;4.05;;;9.00;99.90;;;;;;5074573;28;20403;-76
2023/04/16 08:06:50;;;;;;;13.05;3.25;;;9.00;99.90;;;;;;5056164;28;20025;-77
2023/04/16 08:09:16;;;;;;;11.95;5.45;;;9.10;99.90;;;;;;5056147;28;20024;-76
2023/04/16 08:11:42;;;;;;;9.07;3.83;;;9.10;99.90;;;;;;5055883;28;20025;-78
2023/04/16 08:14:07;;;;;;;9.48;3.13;;;9.10;99.90;;;;;;5072380;28;20031;-77
2023/04/16 08:16:33;;;;;;;9.68;4.10;;;9.20;99.90;;;;;;5072647;28;20023;-77
2023/04/16 08:18:59;;;;;;;7.88;3.42;;;9.20;99.90;;;;;;5074354;28;20063;-77
2023/04/16 08:21:26;;;;;;;9.10;3.67;;;9.20;99.90;;;;;;5073299;28;20024;-78
2023/04/16 08:23:52;;;;;;;9.50;3.90;;;9.20;99.90;;;;;;5073394;28;20021;-76
2023/04/16 08:26:18;;;;;;;9.32;3.33;;;9.20;99.90;;;;;;5073686;28;20540;-78
2023/04/16 08:28:44;;;;;;;10.48;3.88;;;9.20;99.90;;;;;;5073769;28;20028;-77
2023/04/16 08:31:10;;;;;;;8.50;3.38;;;9.30;99.90;;;;;;5055756;28;20033;-77
2023/04/16 08:33:35;;;;;;;8.63;3.03;;;9.30;99.90;;;;;;5073691;28;20024;-77
2023/04/16 08:36:01;;;;;;;9.70;3.55;;;9.30;99.90;;;;;;5073448;28;20071;-77
2023/04/16 08:38:26;;;;;;;9.45;3.80;;;9.30;99.90;;;;;;5055629;28;20392;-75
2023/04/16 08:40:53;;;;;;;8.60;2.80;;;9.70;99.90;;;;;;5073479;28;20484;-74
2023/04/16 08:43:22;;;;;;;11.90;4.00;;;9.40;99.90;;;;;;5074149;28;20016;-75
2023/04/16 08:45:48;;;;;;;;;;;9.50;99.90;;;;;;5056006;28;20039;-75
2023/04/16 08:48:14;;;;;;;9.48;3.20;;;9.50;99.90;;;;;;5055445;28;20322;-74
2023/04/16 08:50:40;;;;;;;8.52;2.70;;;9.50;99.90;;;;;;5073504;28;20082;-74
2023/04/16 08:53:09;;;;;;;8.30;3.00;;;9.60;99.90;;;;;;5073404;28;20455;-74
2023/04/16 08:55:42;;;;;;;12.70;3.53;;;9.60;99.90;;;;;;5055528;28;20024;-74
2023/04/16 08:58:13;;;;;;;7.25;2.53;;;9.60;99.90;;;;;;5073395;28;20032;-74
2023/04/16 09:00:42;;;;;;;9.40;3.25;;;9.60;99.90;;;;;;5073378;28;20017;-74
2023/04/16 09:03:08;;;;;;;5.93;2.15;;;9.60;99.90;;;;;;5073382;28;20071;-75
2023/04/16 09:05:34;;;;;;;9.55;3.35;;;9.60;99.90;;;;;;5054471;28;20020;-74
2023/04/16 09:07:59;;;;;;;5.88;1.95;;;9.60;99.90;;;;;;5073314;28;20029;-74
2023/04/16 09:10:26;;;;;;;5.43;2.53;;;9.60;99.90;;;;;;5073309;28;20028;-74
2023/04/16 09:12:54;;;;;;;6.75;1.95;;;9.60;99.90;;;;;;5073416;28;20549;-75
2023/04/16 09:15:24;;;;;;;3.75;1.42;;;9.60;99.90;;;;;;5055257;28;20035;-74
2023/04/16 09:17:51;;;;;;;6.72;2.38;;;9.60;99.90;;;;;;5055050;28;20552;-74
2023/04/16 09:20:17;;;;;;;7.78;2.72;;;9.60;99.90;;;;;;5055211;28;20016;-74
2023/04/16 09:22:43;;;;;;;7.80;2.47;;;9.60;99.90;;;;;;5055159;28;20021;-75
2023/04/16 09:25:10;;;;;;;9.63;2.17;;;9.70;99.90;;;;;;5073164;28;20023;-74
2023/04/16 09:27:36;;;;;;;7.13;1.77;;;9.60;99.90;;;;;;5073222;28;20499;-74
2023/04/16 09:30:20;;;;;;;7.22;2.03;;;9.60;99.90;;;;;;5055307;28;20070;-75
2023/04/16 09:32:46;;;;;;;5.90;2.05;;;9.70;99.90;;;;;;5073135;28;20029;-75
2023/04/16 09:35:11;;;;;;;6.28;2.00;;;9.70;99.90;;;;;;5054903;28;20024;-74
2023/04/16 09:37:37;;;;;;;2.95;1.30;;;9.70;99.90;;;;;;5054964;28;20016;-74
2023/04/16 09:40:04;;;;;;;5.65;1.73;;;9.70;99.90;;;;;;5054853;28;20555;-75
2023/04/16 09:42:31;;;;;;;7.65;2.15;;;9.70;99.90;;;;;;5054957;28;20399;-74
2023/04/16 09:44:58;;;;;;;7.78;1.98;;;9.90;99.90;;;;;;5054857;28;20158;-75
2023/04/16 09:47:37;;;;;;;3.67;1.30;;;9.80;99.90;;;;;;5072812;28;20034;-75
2023/04/16 09:50:02;;;;;;;5.10;1.25;;;9.80;99.90;;;;;;5054840;28;20078;-74
2023/04/16 09:52:28;;;;;;;2.85;0.98;;;9.80;99.90;;;;;;5072763;28;20033;-76
2023/04/16 09:54:53;;;;;;;3.00;1.42;;;9.80;99.90;;;;;;5073702;28;20472;-77
2023/04/16 09:57:23;;;;;;;4.32;1.63;;;9.80;99.90;;;;;;5055511;28;20039;-77
2023/04/16 10:00:02;;;;;;;3.40;1.13;;;9.90;99.90;;;;;;5055407;28;20043;-77
2023/04/16 10:02:28;;;;;;;3.42;1.15;;;9.80;99.90;;;;;;5073631;28;20502;-77
2023/04/16 10:04:55;;;;;;;2.85;0.90;;;9.80;99.90;;;;;;5073348;28;20031;-77
2023/04/16 10:07:27;;;;;;;6.50;1.17;;;9.90;99.90;;;;;;5073323;28;20032;-77
2023/04/16 10:09:53;;;;;;;3.83;1.80;;;9.90;99.90;;;;;;5055347;28;20031;-77
2023/04/16 10:12:19;;;;;;;4.60;1.05;;;10.00;99.90;;;;;;5074273;28;20029;-77
2023/04/16 10:14:45;;;;;;;4.13;1.02;;;10.10;99.90;;;;;;5055836;28;20071;-77
2023/04/16 10:17:11;;;;;;;4.32;1.38;;;10.00;99.90;;;;;;5057770;28;20049;-76
2023/04/16 10:19:36;;;;;;;5.40;0.90;;;10.10;99.90;;;;;;5058752;28;20081;-78
2023/04/16 10:22:03;;;;;;;4.30;1.15;;;10.10;99.90;;;;;;5076671;28;20099;-78
2023/04/16 10:24:30;;;;;;;6.43;2.08;;;10.30;99.90;;;;;;5076682;28;20063;-76
2023/04/16 10:26:56;;;;;;;4.53;1.67;;;10.20;99.90;;;;;;5058985;28;20107;-77
2023/04/16 10:29:23;;;;;;;4.93;1.27;;;10.20;99.90;;;;;;5076784;28;20032;-77
2023/04/16 10:31:50;;;;;;;2.35;1.08;;;10.10;99.90;;;;;;5059257;28;20021;-77
2023/04/16 10:34:16;;;;;;;7.03;1.83;;;10.20;99.90;;;;;;5076650;28;20028;-77
2023/04/16 10:36:42;;;;;;;6.18;1.10;;;10.20;99.90;;;;;;5057892;28;20626;-77
2023/04/16 10:39:12;;;;;;;4.60;0.98;;;10.20;99.90;;;;;;5075885;28;20115;-76
2023/04/16 10:41:39;;;;;;;6.95;2.30;;;10.20;99.90;;;;;;5080456;28;20020;-77
2023/04/16 10:44:08;;;;;;;5.13;1.73;;;10.30;99.90;;;;;;5060353;28;20025;-77
2023/04/16 10:46:38;;;;;;;4.80;2.33;;;10.40;99.90;;;;;;5076252;28;20099;-77
2023/04/16 10:49:22;;;;;;;6.47;2.25;;;10.40;99.90;;;;;;5058180;28;20025;-77
2023/04/16 10:51:53;;;;;;;6.65;1.35;;;10.50;99.90;;;;;;5076179;28;20021;-77
2023/04/16 10:54:25;;;;;;;6.00;1.83;;;10.50;99.90;;;;;;5058172;28;20032;-77
2023/04/16 10:56:51;;;;;;;4.13;1.08;;;10.50;99.90;;;;;;5057737;28;20441;-76
2023/04/16 10:59:18;;;;;;;4.68;1.17;;;10.70;99.90;;;;;;5075561;28;20380;-76
2023/04/16 11:01:52;;;;;;;3.38;0.93;;;10.70;99.90;;;;;;5076130;28;20024;-76
2023/04/16 11:04:24;;;;;;;5.97;1.73;;;10.70;99.90;;;;;;5075409;28;20484;-76
2023/04/16 11:07:07;;;;;;;6.63;1.95;;;10.70;99.90;;;;;;5075936;28;20107;-76
2023/04/16 11:09:55;;;;;;;13.43;2.50;;;10.70;99.90;;;;;;5075455;28;20028;-76
2023/04/16 11:12:26;;;;;;;9.32;2.03;;;10.70;99.90;;;;;;5075589;28;20021;-76
2023/04/16 11:15:13;;;;;;;13.93;3.33;;;10.80;99.90;;;;;;5057250;28;20480;-76
2023/04/16 11:17:43;;;;;;;7.53;2.20;;;10.80;99.90;;;;;;5075393;28;20033;-77
2023/04/16 11:20:15;;;;;;;8.52;2.55;;;10.70;99.90;;;;;;5075167;28;20017;-76
2023/04/16 11:22:41;;;;;;;9.10;2.08;;;10.70;99.90;;;;;;5057174;28;20032;-76
2023/04/16 11:25:07;;;;;;;12.40;3.10;;;10.70;99.90;;;;;;5075055;28;20388;-76
2023/04/16 11:27:33;;;;;;;14.25;2.50;;;10.80;99.90;;;;;;5056098;28;20024;-77
2023/04/16 11:30:01;;;;;;;11.88;3.47;;;10.90;99.90;;;;;;5057490;28;20019;-78
2023/04/16 11:32:27;;;;;;;12.67;3.47;;;10.80;99.90;;;;;;5075385;28;20020;-77
2023/04/16 11:34:52;;;;;;;12.55;2.15;;;10.80;99.90;;;;;;5056858;28;20548;-77
2023/04/16 11:37:32;;;;;;;9.93;3.25;;;10.80;99.90;;;;;;5074796;28;20021;-77
2023/04/16 11:39:58;;;;;;;15.05;3.28;;;10.90;99.90;;;;;;5056679;28;20475;-77
2023/04/16 11:42:25;;;;;;;9.98;3.15;;;11.10;99.90;;;;;;5056869;28;20024;-78
2023/04/16 11:44:53;;;;;;;10.10;3.33;;;11.00;99.90;;;;;;5056905;28;20400;-77
2023/04/16 11:47:18;;;;;;;12.40;3.28;;;11.00;99.90;;;;;;5056698;28;20013;-77
2023/04/16 11:49:44;;;;;;;12.27;3.80;;;12.60;99.90;;;;;;5074591;28;20032;-77
2023/04/16 11:52:10;;;;;;;9.15;3.22;;;11.00;99.90;;;;;;5056627;28;20021;-77
2023/04/16 11:54:36;;;;;;;13.63;3.90;;;11.00;99.90;;;;;;5074560;28;20170;-78
2023/04/16 11:57:05;;;;;;;8.20;3.63;;;11.20;99.90;;;;;;5074378;28;20123;-77
2023/04/16 11:59:32;;;;;;;8.00;3.78;;;11.20;99.90;;;;;;5056790;28;20023;-78
2023/04/16 12:01:57;;;;;;;15.43;4.85;;;11.40;99.90;;;;;;5056358;28;20103;-77
2023/04/16 12:04:25;;;;;;;10.85;3.95;;;11.10;99.90;;;;;;5056719;28;20432;-78
2023/04/16 12:07:07;;;;;;;12.60;3.87;;;11.10;99.90;;;;;;5075210;28;20046;-78
2023/04/16 12:09:34;;;;;;;14.35;3.90;;;11.10;99.90;;;;;;5056471;28;20115;-77
2023/04/16 12:12:00;;;;;;;13.65;4.28;;;11.00;99.90;;;;;;5056507;28;20082;-77
2023/04/16 12:14:25;;;;;;;18.20;4.78;;;10.90;99.90;;;;;;5056010;28;20479;-77
2023/04/16 12:16:51;;;;;;;25.52;5.97;;;10.90;99.90;;;;;;5074014;28;20020;-76
2023/04/16 12:19:17;;;;;;;19.85;6.10;;;10.90;99.90;;;;;;5056077;28;20058;-76
2023/04/16 12:21:47;;;;;;;18.02;5.90;;;11.60;99.90;;;;;;5074289;28;20094;-77
2023/04/16 12:24:21;;;;;;;18.95;5.15;;;11.00;99.90;;;;;;5055871;28;20475;-76
2023/04/16 12:26:54;;;;;;;18.35;5.20;;;11.10;99.90;;;;;;5073853;28;20048;-76
2023/04/16 12:29:30;;;;;;;16.05;4.47;;;11.10;99.90;;;;;;5073915;28;20031;-76
2023/04/16 12:31:56;;;;;;;19.02;4.35;;;11.10;99.90;;;;;;5074641;28;20028;-76
2023/04/16 12:34:22;;;;;;;15.27;4.82;;;11.10;99.90;;;;;;5073849;28;20028;-77
2023/04/16 12:37:01;;;;;;;17.90;5.55;;;11.20;99.90;;;;;;5055932;28;20536;-77
2023/04/16 12:39:27;;;;;;;17.08;5.15;;;11.10;99.90;;;;;;5055720;28;20119;-76
2023/04/16 12:41:52;;;;;;;16.95;5.32;;;11.20;99.90;;;;;;5073558;28;20052;-76
2023/04/16 12:44:18;;;;;;;15.65;4.30;;;11.30;99.90;;;;;;5073538;28;20017;-77
2023/04/16 12:46:45;;;;;;;13.18;4.72;;;11.50;99.90;;;;;;5059061;28;20032;-77
2023/04/16 12:49:10;;;;;;;12.80;4.50;;;11.50;99.90;;;;;;5056140;28;20039;-77
2023/04/16 12:51:37;;;;;;;11.82;3.53;;;11.60;99.90;;;;;;5074165;28;20014;-78